Big Basin, California
Current Conditions -  °F | °C
As of 4:56 AM on Thursday 30 Oct 2014 (Local Time) from KNUQ Reporting Station
Clear Clear  
Wind Chill: 58°   Ceiling: Unl
Heat Index: 58°   Visibility: 10mi
Dew Point: 50°   Wind: 0mph
Humidity: 75%   Direction: NA
Pressure: 29.93"   Gusts: NA
Location:  37.1694°N, 122.153°W
Report Text: KNUQ 301156Z AUTO 00000KT 10SM CLR 14/10 A2993 RMK AO2 SLP137 T01440100 10172 20133 58010 TSNO
Loading
Personal Weather Stations






























Interactive Weather Map
Tropical Storm Tracking
New forecast layout! Learn more

10-Day Weather Forecast

Advertisements
Track Severe Weather on mobile